Pagina principale
Immagini satellite Previsioni 10 giorniClimaMeteomar Cicloni Fulmine AeroportiFAQ Bollettino Informazioni
Tempo : Europa Africa America settentrionale America meridionale Asia Australia-Oceania Altri
Lingue Contatto

Genova, Italia

Aeroporto di Genova-Sestri

latitudine: 44-25N, longitudine: 008-51E, altezza: 2 m


METAR: LIMJ 020550Z 05005KT 020V080 9999 FEW028 22/14 Q1015
TAF: LIMJ 020500Z 0206/0306 VRB05KT 9999 SCT035

Ora: 08:14 (06:14 UTC)

Osservazione

Il bollettino è stato emesso 24 minuti fa, alle 05:50 UTC
Vento 5 kt da nord-est, variando fra nord/nord-est e est
Temperature 22°C
Umidità 60%
Pressione 1015 hPa
Visibilità 10 km o più
Poco nuvoloso ad un'altezza di 2800 ft

Cambiare le unità

Previsione

Il bollettino è stato emesso 1 ora e 14 minuti fa, alle 05:00 UTC
Previsione valida dal 02 alle 06 UTC al 03 alle 06 UTC
Vento 5 kt da direzioni variabili
Visibilità 10 km o più
Nubi sparse ad un'altezza di 3500 ft
Le informazioni contenute in questo sito formano oggetto di una clausola di esclusione di responsabilità
Tempo : Europa Africa America settentrionale America meridionale Asia Australia-Oceania Altri
Immagini satellite Previsioni 10 giorniClimaMeteomar Cicloni Fulmine AeroportiFAQ Lingue Contatto Bollettino Informazioni